sensor_id;sensor_type;location;lat;lon;timestamp;P1;durP1;ratioP1;P2;durP2;ratioP2
22240;SDS011;11289;52.524;13.694;2024-01-30T00:02:13;13.23;;;7.35;;
22240;SDS011;11289;52.524;13.694;2024-01-30T00:04:39;14.77;;;7.90;;
22240;SDS011;11289;52.524;13.694;2024-01-30T00:07:05;11.45;;;7.45;;
22240;SDS011;11289;52.524;13.694;2024-01-30T00:09:31;14.43;;;8.52;;
22240;SDS011;11289;52.524;13.694;2024-01-30T00:11:56;14.93;;;7.93;;
22240;SDS011;11289;52.524;13.694;2024-01-30T00:14:22;14.63;;;8.10;;
22240;SDS011;11289;52.524;13.694;2024-01-30T00:16:48;14.32;;;8.02;;
22240;SDS011;11289;52.524;13.694;2024-01-30T00:19:16;12.65;;;7.25;;
22240;SDS011;11289;52.524;13.694;2024-01-30T00:21:41;15.88;;;7.88;;
22240;SDS011;11289;52.524;13.694;2024-01-30T00:24:07;12.77;;;7.72;;
22240;SDS011;11289;52.524;13.694;2024-01-30T00:26:33;14.60;;;7.90;;
22240;SDS011;11289;52.524;13.694;2024-01-30T00:28:59;13.95;;;7.72;;
22240;SDS011;11289;52.524;13.694;2024-01-30T00:31:25;15.50;;;7.25;;
22240;SDS011;11289;52.524;13.694;2024-01-30T00:33:51;14.40;;;7.85;;
22240;SDS011;11289;52.524;13.694;2024-01-30T00:36:17;13.85;;;7.63;;
22240;SDS011;11289;52.524;13.694;2024-01-30T00:38:43;13.70;;;7.88;;
22240;SDS011;11289;52.524;13.694;2024-01-30T00:41:09;12.32;;;7.20;;
22240;SDS011;11289;52.524;13.694;2024-01-30T00:43:36;17.70;;;8.32;;
22240;SDS011;11289;52.524;13.694;2024-01-30T00:46:02;14.32;;;8.25;;
22240;SDS011;11289;52.524;13.694;2024-01-30T00:48:28;15.18;;;7.30;;
22240;SDS011;11289;52.524;13.694;2024-01-30T00:50:54;14.23;;;7.78;;
22240;SDS011;11289;52.524;13.694;2024-01-30T00:53:20;14.27;;;7.13;;
22240;SDS011;11289;52.524;13.694;2024-01-30T00:55:46;16.67;;;7.63;;
22240;SDS011;11289;52.524;13.694;2024-01-30T00:58:12;13.43;;;6.93;;
22240;SDS011;11289;52.524;13.694;2024-01-30T01:00:38;13.52;;;7.53;;
22240;SDS011;11289;52.524;13.694;2024-01-30T01:03:04;12.75;;;7.78;;
22240;SDS011;11289;52.524;13.694;2024-01-30T01:05:30;16.65;;;7.38;;
22240;SDS011;11289;52.524;13.694;2024-01-30T01:07:56;13.27;;;7.05;;
22240;SDS011;11289;52.524;13.694;2024-01-30T01:10:23;13.60;;;7.10;;
22240;SDS011;11289;52.524;13.694;2024-01-30T01:12:49;11.23;;;7.05;;
22240;SDS011;11289;52.524;13.694;2024-01-30T01:15:15;11.68;;;8.13;;
22240;SDS011;11289;52.524;13.694;2024-01-30T01:17:41;15.68;;;8.02;;
22240;SDS011;11289;52.524;13.694;2024-01-30T01:20:07;17.92;;;8.80;;
22240;SDS011;11289;52.524;13.694;2024-01-30T01:22:34;13.20;;;7.00;;
22240;SDS011;11289;52.524;13.694;2024-01-30T01:25:00;13.63;;;8.07;;
22240;SDS011;11289;52.524;13.694;2024-01-30T01:27:26;15.90;;;7.55;;
22240;SDS011;11289;52.524;13.694;2024-01-30T01:29:53;17.67;;;9.25;;
22240;SDS011;11289;52.524;13.694;2024-01-30T01:32:19;14.38;;;7.13;;
22240;SDS011;11289;52.524;13.694;2024-01-30T01:34:45;13.70;;;7.07;;
22240;SDS011;11289;52.524;13.694;2024-01-30T01:37:11;16.60;;;7.90;;
22240;SDS011;11289;52.524;13.694;2024-01-30T01:39:37;16.65;;;8.07;;
22240;SDS011;11289;52.524;13.694;2024-01-30T01:42:03;16.00;;;8.52;;
22240;SDS011;11289;52.524;13.694;2024-01-30T01:44:29;14.85;;;8.05;;
22240;SDS011;11289;52.524;13.694;2024-01-30T01:46:55;16.30;;;8.13;;
22240;SDS011;11289;52.524;13.694;2024-01-30T01:49:25;17.48;;;7.75;;
22240;SDS011;11289;52.524;13.694;2024-01-30T01:51:53;12.80;;;7.78;;
22240;SDS011;11289;52.524;13.694;2024-01-30T01:54:22;14.60;;;7.72;;
22240;SDS011;11289;52.524;13.694;2024-01-30T01:56:49;15.95;;;8.10;;
22240;SDS011;11289;52.524;13.694;2024-01-30T01:59:16;16.45;;;7.57;;
22240;SDS011;11289;52.524;13.694;2024-01-30T02:01:43;16.30;;;7.70;;
22240;SDS011;11289;52.524;13.694;2024-01-30T02:04:11;13.23;;;7.40;;
22240;SDS011;11289;52.524;13.694;2024-01-30T02:06:37;15.70;;;8.10;;
22240;SDS011;11289;52.524;13.694;2024-01-30T02:09:03;13.50;;;7.75;;
22240;SDS011;11289;52.524;13.694;2024-01-30T02:11:30;13.13;;;7.97;;
22240;SDS011;11289;52.524;13.694;2024-01-30T02:13:56;12.23;;;6.85;;
22240;SDS011;11289;52.524;13.694;2024-01-30T02:16:22;12.15;;;7.68;;
22240;SDS011;11289;52.524;13.694;2024-01-30T02:18:48;16.23;;;8.27;;
22240;SDS011;11289;52.524;13.694;2024-01-30T02:21:15;19.10;;;7.65;;
22240;SDS011;11289;52.524;13.694;2024-01-30T02:23:42;14.90;;;7.57;;
22240;SDS011;11289;52.524;13.694;2024-01-30T02:26:10;13.05;;;7.30;;
22240;SDS011;11289;52.524;13.694;2024-01-30T02:28:37;13.07;;;7.28;;
22240;SDS011;11289;52.524;13.694;2024-01-30T02:31:03;13.32;;;7.65;;
22240;SDS011;11289;52.524;13.694;2024-01-30T02:33:30;13.45;;;7.35;;
22240;SDS011;11289;52.524;13.694;2024-01-30T02:35:56;13.27;;;7.68;;
22240;SDS011;11289;52.524;13.694;2024-01-30T02:38:22;13.60;;;7.05;;
22240;SDS011;11289;52.524;13.694;2024-01-30T02:40:49;13.27;;;7.78;;
22240;SDS011;11289;52.524;13.694;2024-01-30T02:43:15;13.70;;;7.47;;
22240;SDS011;11289;52.524;13.694;2024-01-30T02:45:42;11.38;;;7.60;;
22240;SDS011;11289;52.524;13.694;2024-01-30T02:48:08;13.55;;;7.68;;
22240;SDS011;11289;52.524;13.694;2024-01-30T02:50:34;12.88;;;7.47;;
22240;SDS011;11289;52.524;13.694;2024-01-30T02:53:00;15.85;;;8.80;;
22240;SDS011;11289;52.524;13.694;2024-01-30T02:55:26;16.33;;;7.15;;
22240;SDS011;11289;52.524;13.694;2024-01-30T02:57:52;14.32;;;8.05;;
22240;SDS011;11289;52.524;13.694;2024-01-30T03:00:18;17.73;;;7.85;;
22240;SDS011;11289;52.524;13.694;2024-01-30T03:02:45;13.43;;;7.82;;
22240;SDS011;11289;52.524;13.694;2024-01-30T03:05:11;16.58;;;8.05;;
22240;SDS011;11289;52.524;13.694;2024-01-30T03:07:37;14.10;;;7.75;;
22240;SDS011;11289;52.524;13.694;2024-01-30T03:10:06;12.70;;;8.40;;
22240;SDS011;11289;52.524;13.694;2024-01-30T03:12:32;14.43;;;7.70;;
22240;SDS011;11289;52.524;13.694;2024-01-30T03:14:58;16.38;;;8.13;;
22240;SDS011;11289;52.524;13.694;2024-01-30T03:17:24;11.88;;;7.05;;
22240;SDS011;11289;52.524;13.694;2024-01-30T03:19:50;15.20;;;8.13;;
22240;SDS011;11289;52.524;13.694;2024-01-30T03:22:16;18.15;;;8.27;;
22240;SDS011;11289;52.524;13.694;2024-01-30T03:24:42;15.82;;;7.90;;
22240;SDS011;11289;52.524;13.694;2024-01-30T03:27:08;13.65;;;6.97;;
22240;SDS011;11289;52.524;13.694;2024-01-30T03:29:34;17.85;;;8.43;;
22240;SDS011;11289;52.524;13.694;2024-01-30T03:32:01;14.65;;;8.70;;
22240;SDS011;11289;52.524;13.694;2024-01-30T03:34:26;16.63;;;8.27;;
22240;SDS011;11289;52.524;13.694;2024-01-30T03:36:52;13.45;;;8.52;;
22240;SDS011;11289;52.524;13.694;2024-01-30T03:39:18;16.95;;;8.35;;
22240;SDS011;11289;52.524;13.694;2024-01-30T03:41:44;14.10;;;7.95;;
22240;SDS011;11289;52.524;13.694;2024-01-30T03:44:11;13.32;;;7.95;;
22240;SDS011;11289;52.524;13.694;2024-01-30T03:46:37;18.17;;;8.88;;
22240;SDS011;11289;52.524;13.694;2024-01-30T03:49:03;13.27;;;8.23;;
22240;SDS011;11289;52.524;13.694;2024-01-30T03:51:28;12.15;;;7.55;;
22240;SDS011;11289;52.524;13.694;2024-01-30T03:53:55;16.65;;;8.82;;
22240;SDS011;11289;52.524;13.694;2024-01-30T03:56:21;17.15;;;8.30;;
22240;SDS011;11289;52.524;13.694;2024-01-30T03:58:47;17.83;;;9.50;;
22240;SDS011;11289;52.524;13.694;2024-01-30T04:01:13;17.33;;;8.55;;
22240;SDS011;11289;52.524;13.694;2024-01-30T04:03:40;16.88;;;9.07;;
22240;SDS011;11289;52.524;13.694;2024-01-30T04:06:07;17.08;;;8.63;;
22240;SDS011;11289;52.524;13.694;2024-01-30T04:08:34;17.20;;;8.60;;
22240;SDS011;11289;52.524;13.694;2024-01-30T04:11:03;17.17;;;9.38;;
22240;SDS011;11289;52.524;13.694;2024-01-30T04:13:31;14.38;;;8.68;;
22240;SDS011;11289;52.524;13.694;2024-01-30T04:15:59;14.20;;;7.65;;
22240;SDS011;11289;52.524;13.694;2024-01-30T04:18:27;16.77;;;8.18;;
22240;SDS011;11289;52.524;13.694;2024-01-30T04:20:53;19.10;;;8.60;;
22240;SDS011;11289;52.524;13.694;2024-01-30T04:23:19;13.93;;;8.38;;
22240;SDS011;11289;52.524;13.694;2024-01-30T04:25:45;12.65;;;9.13;;
22240;SDS011;11289;52.524;13.694;2024-01-30T04:28:11;17.98;;;8.90;;
22240;SDS011;11289;52.524;13.694;2024-01-30T04:30:38;16.65;;;8.38;;
22240;SDS011;11289;52.524;13.694;2024-01-30T04:33:04;14.95;;;8.30;;
22240;SDS011;11289;52.524;13.694;2024-01-30T04:35:30;15.02;;;9.05;;
22240;SDS011;11289;52.524;13.694;2024-01-30T04:37:56;14.90;;;8.05;;
22240;SDS011;11289;52.524;13.694;2024-01-30T04:40:22;13.65;;;7.90;;
22240;SDS011;11289;52.524;13.694;2024-01-30T04:42:48;14.52;;;8.45;;
22240;SDS011;11289;52.524;13.694;2024-01-30T04:45:14;13.93;;;8.35;;
22240;SDS011;11289;52.524;13.694;2024-01-30T04:47:40;15.20;;;9.23;;
22240;SDS011;11289;52.524;13.694;2024-01-30T04:50:06;14.80;;;8.70;;
22240;SDS011;11289;52.524;13.694;2024-01-30T04:52:33;14.60;;;8.23;;
22240;SDS011;11289;52.524;13.694;2024-01-30T04:54:58;18.80;;;8.32;;
22240;SDS011;11289;52.524;13.694;2024-01-30T04:57:24;14.32;;;8.65;;
22240;SDS011;11289;52.524;13.694;2024-01-30T04:59:50;12.48;;;7.97;;
22240;SDS011;11289;52.524;13.694;2024-01-30T05:02:16;17.42;;;8.73;;
22240;SDS011;11289;52.524;13.694;2024-01-30T05:04:42;14.65;;;8.40;;
22240;SDS011;11289;52.524;13.694;2024-01-30T05:07:08;14.20;;;9.18;;
22240;SDS011;11289;52.524;13.694;2024-01-30T05:09:34;20.83;;;9.82;;
22240;SDS011;11289;52.524;13.694;2024-01-30T05:12:00;18.45;;;10.30;;
22240;SDS011;11289;52.524;13.694;2024-01-30T05:14:26;18.63;;;10.38;;
22240;SDS011;11289;52.524;13.694;2024-01-30T05:16:52;19.02;;;11.15;;
22240;SDS011;11289;52.524;13.694;2024-01-30T05:19:18;18.63;;;10.75;;
22240;SDS011;11289;52.524;13.694;2024-01-30T05:21:44;18.40;;;10.23;;
22240;SDS011;11289;52.524;13.694;2024-01-30T05:24:10;19.98;;;10.38;;
22240;SDS011;11289;52.524;13.694;2024-01-30T05:26:36;18.00;;;10.13;;
22240;SDS011;11289;52.524;13.694;2024-01-30T05:29:02;19.60;;;9.93;;
22240;SDS011;11289;52.524;13.694;2024-01-30T05:31:28;17.88;;;10.25;;
22240;SDS011;11289;52.524;13.694;2024-01-30T05:33:54;20.05;;;11.07;;
22240;SDS011;11289;52.524;13.694;2024-01-30T05:36:20;18.23;;;11.40;;
22240;SDS011;11289;52.524;13.694;2024-01-30T05:38:47;20.10;;;10.45;;
22240;SDS011;11289;52.524;13.694;2024-01-30T05:41:13;22.10;;;11.73;;
22240;SDS011;11289;52.524;13.694;2024-01-30T05:43:39;15.50;;;10.38;;
22240;SDS011;11289;52.524;13.694;2024-01-30T05:46:06;16.58;;;10.20;;
22240;SDS011;11289;52.524;13.694;2024-01-30T05:48:32;17.50;;;10.57;;
22240;SDS011;11289;52.524;13.694;2024-01-30T05:50:58;17.77;;;10.02;;
22240;SDS011;11289;52.524;13.694;2024-01-30T05:53:25;18.10;;;10.48;;
22240;SDS011;11289;52.524;13.694;2024-01-30T05:55:51;18.20;;;10.18;;
22240;SDS011;11289;52.524;13.694;2024-01-30T05:58:17;19.67;;;10.05;;
22240;SDS011;11289;52.524;13.694;2024-01-30T06:00:43;22.25;;;10.32;;
22240;SDS011;11289;52.524;13.694;2024-01-30T06:03:09;18.08;;;9.85;;
22240;SDS011;11289;52.524;13.694;2024-01-30T06:05:34;25.00;;;12.32;;
22240;SDS011;11289;52.524;13.694;2024-01-30T06:08:01;23.02;;;14.10;;
22240;SDS011;11289;52.524;13.694;2024-01-30T06:10:27;29.60;;;16.23;;
22240;SDS011;11289;52.524;13.694;2024-01-30T06:12:53;27.23;;;16.48;;
22240;SDS011;11289;52.524;13.694;2024-01-30T06:15:19;27.63;;;15.43;;
22240;SDS011;11289;52.524;13.694;2024-01-30T06:17:46;23.75;;;13.82;;
22240;SDS011;11289;52.524;13.694;2024-01-30T06:20:12;22.77;;;13.93;;
22240;SDS011;11289;52.524;13.694;2024-01-30T06:22:38;24.02;;;13.80;;
22240;SDS011;11289;52.524;13.694;2024-01-30T06:25:04;26.38;;;14.43;;
22240;SDS011;11289;52.524;13.694;2024-01-30T06:27:30;24.67;;;13.85;;
22240;SDS011;11289;52.524;13.694;2024-01-30T06:29:56;21.75;;;13.50;;
22240;SDS011;11289;52.524;13.694;2024-01-30T06:32:21;22.63;;;14.05;;
22240;SDS011;11289;52.524;13.694;2024-01-30T06:34:47;26.83;;;14.70;;
22240;SDS011;11289;52.524;13.694;2024-01-30T06:37:13;22.55;;;13.85;;
22240;SDS011;11289;52.524;13.694;2024-01-30T06:39:39;20.73;;;12.27;;
22240;SDS011;11289;52.524;13.694;2024-01-30T06:42:05;22.70;;;11.85;;
22240;SDS011;11289;52.524;13.694;2024-01-30T06:44:31;22.00;;;12.68;;
22240;SDS011;11289;52.524;13.694;2024-01-30T06:46:57;19.95;;;11.82;;
22240;SDS011;11289;52.524;13.694;2024-01-30T06:49:23;21.23;;;11.95;;
22240;SDS011;11289;52.524;13.694;2024-01-30T06:51:49;21.30;;;12.80;;
22240;SDS011;11289;52.524;13.694;2024-01-30T06:54:15;23.73;;;13.77;;
22240;SDS011;11289;52.524;13.694;2024-01-30T06:56:40;24.38;;;13.73;;
22240;SDS011;11289;52.524;13.694;2024-01-30T06:59:06;24.23;;;13.90;;
22240;SDS011;11289;52.524;13.694;2024-01-30T07:01:34;23.73;;;14.15;;
22240;SDS011;11289;52.524;13.694;2024-01-30T07:03:59;22.60;;;13.52;;
22240;SDS011;11289;52.524;13.694;2024-01-30T07:06:26;23.67;;;13.63;;
22240;SDS011;11289;52.524;13.694;2024-01-30T07:08:52;20.63;;;13.63;;
22240;SDS011;11289;52.524;13.694;2024-01-30T07:11:21;23.65;;;12.80;;
22240;SDS011;11289;52.524;13.694;2024-01-30T07:13:48;23.13;;;13.43;;
22240;SDS011;11289;52.524;13.694;2024-01-30T07:16:14;22.30;;;13.57;;
22240;SDS011;11289;52.524;13.694;2024-01-30T07:18:40;24.30;;;14.13;;
22240;SDS011;11289;52.524;13.694;2024-01-30T07:21:07;33.22;;;18.20;;
22240;SDS011;11289;52.524;13.694;2024-01-30T07:23:33;36.75;;;20.02;;
22240;SDS011;11289;52.524;13.694;2024-01-30T07:26:01;34.65;;;17.98;;
22240;SDS011;11289;52.524;13.694;2024-01-30T07:28:27;23.08;;;14.55;;
22240;SDS011;11289;52.524;13.694;2024-01-30T07:30:53;24.42;;;16.30;;
22240;SDS011;11289;52.524;13.694;2024-01-30T07:33:19;24.85;;;15.95;;
22240;SDS011;11289;52.524;13.694;2024-01-30T07:35:45;24.20;;;14.93;;
22240;SDS011;11289;52.524;13.694;2024-01-30T07:38:11;22.60;;;14.13;;
22240;SDS011;11289;52.524;13.694;2024-01-30T07:40:37;23.48;;;13.77;;
22240;SDS011;11289;52.524;13.694;2024-01-30T07:43:03;21.42;;;12.48;;
22240;SDS011;11289;52.524;13.694;2024-01-30T07:45:29;21.50;;;14.15;;
22240;SDS011;11289;52.524;13.694;2024-01-30T07:47:58;20.80;;;13.13;;
22240;SDS011;11289;52.524;13.694;2024-01-30T07:50:27;19.63;;;12.52;;
22240;SDS011;11289;52.524;13.694;2024-01-30T07:52:55;20.75;;;14.05;;
22240;SDS011;11289;52.524;13.694;2024-01-30T07:55:22;21.45;;;15.70;;
22240;SDS011;11289;52.524;13.694;2024-01-30T07:57:54;24.85;;;14.70;;
22240;SDS011;11289;52.524;13.694;2024-01-30T08:00:21;24.33;;;13.98;;
22240;SDS011;11289;52.524;13.694;2024-01-30T08:02:53;22.90;;;14.68;;
22240;SDS011;11289;52.524;13.694;2024-01-30T08:05:22;31.85;;;15.43;;
22240;SDS011;11289;52.524;13.694;2024-01-30T08:07:49;21.05;;;13.63;;
22240;SDS011;11289;52.524;13.694;2024-01-30T08:10:15;23.75;;;14.32;;
22240;SDS011;11289;52.524;13.694;2024-01-30T08:12:41;24.33;;;14.38;;
22240;SDS011;11289;52.524;13.694;2024-01-30T08:15:07;23.73;;;14.73;;
22240;SDS011;11289;52.524;13.694;2024-01-30T08:17:33;24.15;;;13.13;;
22240;SDS011;11289;52.524;13.694;2024-01-30T08:19:59;23.40;;;14.18;;
22240;SDS011;11289;52.524;13.694;2024-01-30T08:22:25;25.73;;;12.95;;
22240;SDS011;11289;52.524;13.694;2024-01-30T08:24:51;22.55;;;13.02;;
22240;SDS011;11289;52.524;13.694;2024-01-30T08:27:17;20.73;;;12.43;;
22240;SDS011;11289;52.524;13.694;2024-01-30T08:29:43;22.35;;;12.73;;
22240;SDS011;11289;52.524;13.694;2024-01-30T08:32:09;20.73;;;13.60;;
22240;SDS011;11289;52.524;13.694;2024-01-30T08:34:35;24.83;;;13.80;;
22240;SDS011;11289;52.524;13.694;2024-01-30T08:37:01;23.58;;;13.40;;
22240;SDS011;11289;52.524;13.694;2024-01-30T08:39:27;21.08;;;13.40;;
22240;SDS011;11289;52.524;13.694;2024-01-30T08:41:53;20.73;;;13.10;;
22240;SDS011;11289;52.524;13.694;2024-01-30T08:44:19;20.63;;;13.05;;
22240;SDS011;11289;52.524;13.694;2024-01-30T08:46:45;26.92;;;14.23;;
22240;SDS011;11289;52.524;13.694;2024-01-30T08:49:11;24.95;;;15.27;;
22240;SDS011;11289;52.524;13.694;2024-01-30T08:51:39;25.90;;;15.05;;
22240;SDS011;11289;52.524;13.694;2024-01-30T08:54:05;25.15;;;14.23;;
22240;SDS011;11289;52.524;13.694;2024-01-30T08:56:31;22.38;;;13.55;;
22240;SDS011;11289;52.524;13.694;2024-01-30T08:58:57;23.02;;;14.25;;
22240;SDS011;11289;52.524;13.694;2024-01-30T09:01:23;22.35;;;13.32;;
22240;SDS011;11289;52.524;13.694;2024-01-30T09:03:50;24.33;;;15.13;;
22240;SDS011;11289;52.524;13.694;2024-01-30T09:06:16;24.75;;;15.40;;
22240;SDS011;11289;52.524;13.694;2024-01-30T09:08:42;22.83;;;14.00;;
22240;SDS011;11289;52.524;13.694;2024-01-30T09:11:08;23.08;;;13.98;;
22240;SDS011;11289;52.524;13.694;2024-01-30T09:13:35;21.20;;;12.75;;
22240;SDS011;11289;52.524;13.694;2024-01-30T09:16:01;26.83;;;12.95;;
22240;SDS011;11289;52.524;13.694;2024-01-30T09:18:27;19.45;;;11.23;;
22240;SDS011;11289;52.524;13.694;2024-01-30T09:20:54;20.45;;;12.25;;
22240;SDS011;11289;52.524;13.694;2024-01-30T09:23:20;18.42;;;10.75;;
22240;SDS011;11289;52.524;13.694;2024-01-30T09:25:45;19.38;;;12.02;;
22240;SDS011;11289;52.524;13.694;2024-01-30T09:28:11;17.77;;;11.25;;
22240;SDS011;11289;52.524;13.694;2024-01-30T09:30:37;22.60;;;12.23;;
22240;SDS011;11289;52.524;13.694;2024-01-30T09:33:03;20.20;;;11.43;;
22240;SDS011;11289;52.524;13.694;2024-01-30T09:35:30;19.58;;;10.38;;
22240;SDS011;11289;52.524;13.694;2024-01-30T09:37:56;18.17;;;11.18;;
22240;SDS011;11289;52.524;13.694;2024-01-30T09:40:23;18.33;;;10.65;;
22240;SDS011;11289;52.524;13.694;2024-01-30T09:42:50;18.65;;;10.93;;
22240;SDS011;11289;52.524;13.694;2024-01-30T09:45:19;21.10;;;11.70;;
22240;SDS011;11289;52.524;13.694;2024-01-30T09:47:45;15.88;;;10.30;;
22240;SDS011;11289;52.524;13.694;2024-01-30T09:50:12;16.33;;;11.00;;
22240;SDS011;11289;52.524;13.694;2024-01-30T09:52:39;16.85;;;9.45;;
22240;SDS011;11289;52.524;13.694;2024-01-30T09:55:06;14.90;;;9.82;;
22240;SDS011;11289;52.524;13.694;2024-01-30T09:57:34;16.13;;;9.73;;
22240;SDS011;11289;52.524;13.694;2024-01-30T10:00:00;14.93;;;11.00;;
22240;SDS011;11289;52.524;13.694;2024-01-30T10:02:26;17.65;;;10.90;;
22240;SDS011;11289;52.524;13.694;2024-01-30T10:04:52;16.65;;;9.48;;
22240;SDS011;11289;52.524;13.694;2024-01-30T10:07:18;16.05;;;9.32;;
22240;SDS011;11289;52.524;13.694;2024-01-30T10:09:45;16.42;;;9.40;;
22240;SDS011;11289;52.524;13.694;2024-01-30T10:12:11;16.27;;;10.00;;
22240;SDS011;11289;52.524;13.694;2024-01-30T10:14:42;16.33;;;10.10;;
22240;SDS011;11289;52.524;13.694;2024-01-30T10:17:08;16.45;;;9.85;;
22240;SDS011;11289;52.524;13.694;2024-01-30T10:19:35;14.00;;;8.90;;
22240;SDS011;11289;52.524;13.694;2024-01-30T10:22:03;15.63;;;9.43;;
22240;SDS011;11289;52.524;13.694;2024-01-30T10:24:29;17.35;;;9.35;;
22240;SDS011;11289;52.524;13.694;2024-01-30T10:26:55;13.93;;;8.52;;
22240;SDS011;11289;52.524;13.694;2024-01-30T10:29:21;14.95;;;9.00;;
22240;SDS011;11289;52.524;13.694;2024-01-30T10:32:03;14.05;;;8.98;;
22240;SDS011;11289;52.524;13.694;2024-01-30T10:34:30;10.00;;;6.47;;
22240;SDS011;11289;52.524;13.694;2024-01-30T10:36:59;12.80;;;8.32;;
22240;SDS011;11289;52.524;13.694;2024-01-30T10:39:36;14.75;;;8.57;;
22240;SDS011;11289;52.524;13.694;2024-01-30T10:42:19;13.68;;;8.32;;
22240;SDS011;11289;52.524;13.694;2024-01-30T10:45:19;15.23;;;9.70;;
22240;SDS011;11289;52.524;13.694;2024-01-30T10:47:39;15.55;;;8.75;;
22240;SDS011;11289;52.524;13.694;2024-01-30T10:50:09;11.75;;;8.52;;
22240;SDS011;11289;52.524;13.694;2024-01-30T10:52:36;15.98;;;7.82;;
22240;SDS011;11289;52.524;13.694;2024-01-30T10:55:03;14.65;;;8.98;;
22240;SDS011;11289;52.524;13.694;2024-01-30T10:57:31;17.38;;;8.52;;
22240;SDS011;11289;52.524;13.694;2024-01-30T11:00:00;15.80;;;8.90;;
22240;SDS011;11289;52.524;13.694;2024-01-30T11:02:31;13.20;;;7.68;;
22240;SDS011;11289;52.524;13.694;2024-01-30T11:04:58;11.18;;;7.50;;
22240;SDS011;11289;52.524;13.694;2024-01-30T11:07:26;12.77;;;7.60;;
22240;SDS011;11289;52.524;13.694;2024-01-30T11:09:53;10.85;;;7.80;;
22240;SDS011;11289;52.524;13.694;2024-01-30T11:12:29;19.35;;;8.55;;
22240;SDS011;11289;52.524;13.694;2024-01-30T11:15:37;12.23;;;7.25;;
22240;SDS011;11289;52.524;13.694;2024-01-30T11:17:57;15.35;;;8.65;;
22240;SDS011;11289;52.524;13.694;2024-01-30T11:20:26;15.07;;;7.68;;
22240;SDS011;11289;52.524;13.694;2024-01-30T11:22:56;11.30;;;7.43;;
22240;SDS011;11289;52.524;13.694;2024-01-30T11:25:23;13.55;;;7.95;;
22240;SDS011;11289;52.524;13.694;2024-01-30T11:27:51;14.27;;;8.15;;
22240;SDS011;11289;52.524;13.694;2024-01-30T11:33:01;12.35;;;6.72;;
22240;SDS011;11289;52.524;13.694;2024-01-30T11:35:33;12.57;;;7.95;;
22240;SDS011;11289;52.524;13.694;2024-01-30T11:38:05;10.05;;;6.80;;
22240;SDS011;11289;52.524;13.694;2024-01-30T11:40:32;13.85;;;8.52;;
22240;SDS011;11289;52.524;13.694;2024-01-30T11:43:00;13.95;;;8.05;;
22240;SDS011;11289;52.524;13.694;2024-01-30T11:45:27;11.45;;;7.53;;
22240;SDS011;11289;52.524;13.694;2024-01-30T11:47:54;9.98;;;6.43;;
22240;SDS011;11289;52.524;13.694;2024-01-30T11:50:20;10.82;;;7.40;;
22240;SDS011;11289;52.524;13.694;2024-01-30T11:52:47;12.95;;;7.45;;
22240;SDS011;11289;52.524;13.694;2024-01-30T11:55:16;12.18;;;5.90;;
22240;SDS011;11289;52.524;13.694;2024-01-30T11:57:43;9.85;;;5.60;;
22240;SDS011;11289;52.524;13.694;2024-01-30T12:00:15;10.90;;;6.18;;
22240;SDS011;11289;52.524;13.694;2024-01-30T12:02:42;11.45;;;6.57;;
22240;SDS011;11289;52.524;13.694;2024-01-30T12:05:09;9.98;;;6.30;;
22240;SDS011;11289;52.524;13.694;2024-01-30T12:07:35;11.93;;;8.75;;
22240;SDS011;11289;52.524;13.694;2024-01-30T12:10:01;26.33;;;15.73;;
22240;SDS011;11289;52.524;13.694;2024-01-30T12:12:28;11.68;;;5.72;;
22240;SDS011;11289;52.524;13.694;2024-01-30T12:14:55;10.38;;;7.03;;
22240;SDS011;11289;52.524;13.694;2024-01-30T12:17:28;9.60;;;5.97;;
22240;SDS011;11289;52.524;13.694;2024-01-30T12:20:02;9.48;;;6.05;;
22240;SDS011;11289;52.524;13.694;2024-01-30T12:22:39;9.63;;;6.45;;
22240;SDS011;11289;52.524;13.694;2024-01-30T12:25:09;10.73;;;6.15;;
22240;SDS011;11289;52.524;13.694;2024-01-30T12:27:37;11.73;;;5.68;;
22240;SDS011;11289;52.524;13.694;2024-01-30T12:30:06;9.52;;;6.22;;
22240;SDS011;11289;52.524;13.694;2024-01-30T12:32:40;12.23;;;6.55;;
22240;SDS011;11289;52.524;13.694;2024-01-30T12:35:10;11.80;;;6.18;;
22240;SDS011;11289;52.524;13.694;2024-01-30T12:37:37;9.50;;;6.40;;
22240;SDS011;11289;52.524;13.694;2024-01-30T12:40:03;11.43;;;6.50;;
22240;SDS011;11289;52.524;13.694;2024-01-30T12:42:30;12.27;;;6.78;;
22240;SDS011;11289;52.524;13.694;2024-01-30T12:44:59;10.60;;;6.75;;
22240;SDS011;11289;52.524;13.694;2024-01-30T12:47:25;11.32;;;6.88;;
22240;SDS011;11289;52.524;13.694;2024-01-30T12:49:51;9.85;;;7.35;;
22240;SDS011;11289;52.524;13.694;2024-01-30T12:52:20;12.93;;;7.47;;
22240;SDS011;11289;52.524;13.694;2024-01-30T12:54:47;11.85;;;6.95;;
22240;SDS011;11289;52.524;13.694;2024-01-30T12:57:14;13.80;;;7.47;;
22240;SDS011;11289;52.524;13.694;2024-01-30T12:59:40;10.52;;;6.38;;
22240;SDS011;11289;52.524;13.694;2024-01-30T13:02:06;9.13;;;6.63;;
22240;SDS011;11289;52.524;13.694;2024-01-30T13:04:32;10.30;;;6.30;;
22240;SDS011;11289;52.524;13.694;2024-01-30T13:06:58;9.23;;;6.28;;
22240;SDS011;11289;52.524;13.694;2024-01-30T13:09:26;7.72;;;5.85;;
22240;SDS011;11289;52.524;13.694;2024-01-30T13:11:52;12.48;;;6.53;;
22240;SDS011;11289;52.524;13.694;2024-01-30T13:14:18;9.93;;;6.55;;
22240;SDS011;11289;52.524;13.694;2024-01-30T13:16:45;9.77;;;6.07;;
22240;SDS011;11289;52.524;13.694;2024-01-30T13:19:11;10.93;;;6.10;;
22240;SDS011;11289;52.524;13.694;2024-01-30T13:21:37;9.88;;;6.55;;
22240;SDS011;11289;52.524;13.694;2024-01-30T13:24:03;10.00;;;5.57;;
22240;SDS011;11289;52.524;13.694;2024-01-30T13:26:31;11.23;;;6.15;;
22240;SDS011;11289;52.524;13.694;2024-01-30T13:28:58;10.30;;;6.78;;
22240;SDS011;11289;52.524;13.694;2024-01-30T13:31:24;13.20;;;7.57;;
22240;SDS011;11289;52.524;13.694;2024-01-30T13:33:50;11.55;;;6.68;;
22240;SDS011;11289;52.524;13.694;2024-01-30T13:36:16;14.52;;;8.93;;
22240;SDS011;11289;52.524;13.694;2024-01-30T13:38:42;14.05;;;7.00;;
22240;SDS011;11289;52.524;13.694;2024-01-30T13:41:08;10.48;;;7.13;;
22240;SDS011;11289;52.524;13.694;2024-01-30T13:43:34;12.65;;;7.10;;
22240;SDS011;11289;52.524;13.694;2024-01-30T13:46:00;10.70;;;6.28;;
22240;SDS011;11289;52.524;13.694;2024-01-30T13:48:26;14.30;;;6.20;;
22240;SDS011;11289;52.524;13.694;2024-01-30T13:50:53;10.60;;;7.05;;
22240;SDS011;11289;52.524;13.694;2024-01-30T13:53:19;11.10;;;6.80;;
22240;SDS011;11289;52.524;13.694;2024-01-30T13:55:45;11.55;;;6.82;;
22240;SDS011;11289;52.524;13.694;2024-01-30T13:58:12;11.05;;;6.35;;
22240;SDS011;11289;52.524;13.694;2024-01-30T14:00:38;9.50;;;6.93;;
22240;SDS011;11289;52.524;13.694;2024-01-30T14:03:04;10.57;;;6.20;;
22240;SDS011;11289;52.524;13.694;2024-01-30T14:05:30;9.60;;;6.55;;
22240;SDS011;11289;52.524;13.694;2024-01-30T14:07:57;9.68;;;6.75;;
22240;SDS011;11289;52.524;13.694;2024-01-30T14:10:23;9.60;;;5.68;;
22240;SDS011;11289;52.524;13.694;2024-01-30T14:12:51;8.60;;;6.55;;
22240;SDS011;11289;52.524;13.694;2024-01-30T14:15:17;10.02;;;6.38;;
22240;SDS011;11289;52.524;13.694;2024-01-30T14:17:44;10.45;;;6.55;;
22240;SDS011;11289;52.524;13.694;2024-01-30T14:20:11;14.25;;;6.15;;